PWSweather.com
Personal Weather Stations
Station Observations
EA5BZ
Nuevo Altabix, ElcheES

Nuevo AltabixElcheES

Lat: 38.276, Lon: -0.671

Elevation: 0

Station Type: Davis Vantage Pro 2

http://meteoelche.es

High Low Average
Temperature 67.2°F19.6°C 48.0°F8.9°C 56.5°F13.6°C
Dew Point 50.8°F10.4°C 36.7°F2.6°C 43.6°F6.4°C
Winds 20.8 mph 33.5 kmh 1.3 mph 2.1 kmh 9.0 mph WSW14.5 kmh WSW
Wind Gusts 33.1 mph53.3 kmh 3.1 mph5.0 kmh 14.0 mph22.5 kmh
Humidity 83% 39% 64%
Pressure 30.23 in1023.7 mb 30.14 in1020.7 mb -
Precipitation 0.00 in0.0 mm - -
Hour Temp Dew Point Humidity Winds Wind Gusts Pressure Precip Precip Rate Daily Precip Total
12:00 AM 49.4°F9.7°C 43.9°F6.6°C 81% 6.3 mph WSW10.1 kmh WSW 6.3 mph10.1 kmh 30.21 in1023.0 mb 0.00 in0.0 mm 0.00 in0.0 mm 0.00 in0.0 mm
12:05 AM 49.3°F9.6°C 43.7°F6.5°C 81% 5.7 mph WSW9.2 kmh WSW 6.3 mph10.1 kmh 30.21 in1023.0 mb 0.00 in0.0 mm 0.00 in0.0 mm 0.00 in0.0 mm
12:10 AM 49.3°F9.6°C 43.7°F6.5°C 81% 4.3 mph WSW6.9 kmh WSW 5.4 mph8.7 kmh 30.21 in1023.0 mb 0.00 in0.0 mm 0.00 in0.0 mm 0.00 in0.0 mm
12:15 AM 49.2°F9.6°C 43.6°F6.4°C 81% 4.3 mph WSW6.9 kmh WSW 6.9 mph11.1 kmh 30.21 in1023.0 mb 0.00 in0.0 mm 0.00 in0.0 mm 0.00 in0.0 mm
12:20 AM 49.0°F9.4°C 43.4°F6.3°C 81% 4.3 mph WSW6.9 kmh WSW 6.5 mph10.5 kmh 30.21 in1023.0 mb 0.00 in0.0 mm 0.00 in0.0 mm 0.00 in0.0 mm
12:25 AM 48.9°F9.4°C 43.3°F6.3°C 81% 4.5 mph WSW7.2 kmh WSW 8.7 mph14.0 kmh 30.20 in1022.7 mb 0.00 in0.0 mm 0.00 in0.0 mm 0.00 in0.0 mm
12:30 AM 48.7°F9.3°C 43.3°F6.3°C 81% 5.4 mph WSW8.7 kmh WSW 8.1 mph13.0 kmh 30.20 in1022.7 mb 0.00 in0.0 mm 0.00 in0.0 mm 0.00 in0.0 mm
12:35 AM 48.7°F9.3°C 43.4°F6.3°C 82% 5.7 mph WSW9.2 kmh WSW 8.7 mph14.0 kmh 30.20 in1022.7 mb 0.00 in0.0 mm 0.00 in0.0 mm 0.00 in0.0 mm
12:40 AM 48.6°F9.2°C 43.3°F6.3°C 82% 6.5 mph WSW10.5 kmh WSW 8.7 mph14.0 kmh 30.20 in1022.7 mb 0.00 in0.0 mm 0.00 in0.0 mm 0.00 in0.0 mm
12:45 AM 48.4°F9.1°C 43.2°F6.2°C 82% 6.6 mph WSW10.6 kmh WSW 8.5 mph13.7 kmh 30.20 in1022.7 mb 0.00 in0.0 mm 0.00 in0.0 mm 0.00 in0.0 mm
12:50 AM 48.4°F9.1°C 43.1°F6.2°C 82% 6.9 mph WSW11.1 kmh WSW 9.2 mph14.8 kmh 30.20 in1022.7 mb 0.00 in0.0 mm 0.00 in0.0 mm 0.00 in0.0 mm
12:55 AM 48.4°F9.1°C 43.1°F6.2°C 82% 7.1 mph WSW11.4 kmh WSW 10.1 mph16.3 kmh 30.20 in1022.7 mb 0.00 in0.0 mm 0.00 in0.0 mm 0.00 in0.0 mm
01:00 AM 48.4°F9.1°C 43.1°F6.2°C 82% 7.6 mph WSW12.2 kmh WSW 8.5 mph13.7 kmh 30.20 in1022.7 mb 0.00 in0.0 mm 0.00 in0.0 mm 0.00 in0.0 mm
01:05 AM 48.4°F9.1°C 43.1°F6.2°C 82% 7.4 mph WSW11.9 kmh WSW 8.1 mph13.0 kmh 30.20 in1022.7 mb 0.00 in0.0 mm 0.00 in0.0 mm 0.00 in0.0 mm
01:10 AM 48.4°F9.1°C 43.1°F6.2°C 82% 6.9 mph WSW11.1 kmh WSW 7.4 mph11.9 kmh 30.20 in1022.7 mb 0.00 in0.0 mm 0.00 in0.0 mm 0.00 in0.0 mm
01:15 AM 48.4°F9.1°C 43.2°F6.2°C 82% 6.6 mph WSW10.6 kmh WSW 7.4 mph11.9 kmh 30.19 in1022.4 mb 0.00 in0.0 mm 0.00 in0.0 mm 0.00 in0.0 mm
01:20 AM 48.6°F9.2°C 43.3°F6.3°C 82% 5.8 mph WSW9.3 kmh WSW 8.1 mph13.0 kmh 30.19 in1022.4 mb 0.00 in0.0 mm 0.00 in0.0 mm 0.00 in0.0 mm
01:25 AM 48.6°F9.2°C 43.3°F6.3°C 82% 5.8 mph WSW9.3 kmh WSW 6.5 mph10.5 kmh 30.19 in1022.4 mb 0.00 in0.0 mm 0.00 in0.0 mm 0.00 in0.0 mm
01:30 AM 48.6°F9.2°C 43.3°F6.3°C 82% 5.8 mph WSW9.3 kmh WSW 6.9 mph11.1 kmh 30.19 in1022.4 mb 0.00 in0.0 mm 0.00 in0.0 mm 0.00 in0.0 mm
01:35 AM 48.6°F9.2°C 43.0°F6.1°C 81% 5.7 mph WSW9.2 kmh WSW 8.1 mph13.0 kmh 30.19 in1022.4 mb 0.00 in0.0 mm 0.00 in0.0 mm 0.00 in0.0 mm
01:40 AM 48.6°F9.2°C 43.0°F6.1°C 81% 5.4 mph WSW8.7 kmh WSW 9.2 mph14.8 kmh 30.19 in1022.4 mb 0.00 in0.0 mm 0.00 in0.0 mm 0.00 in0.0 mm
01:45 AM 48.5°F9.2°C 43.0°F6.1°C 81% 5.8 mph WSW9.3 kmh WSW 8.5 mph13.7 kmh 30.19 in1022.4 mb 0.00 in0.0 mm 0.00 in0.0 mm 0.00 in0.0 mm
01:50 AM 48.4°F9.1°C 42.9°F6.1°C 81% 6.9 mph WSW11.1 kmh WSW 8.1 mph13.0 kmh 30.19 in1022.4 mb 0.00 in0.0 mm 0.00 in0.0 mm 0.00 in0.0 mm
01:55 AM 48.4°F9.1°C 43.2°F6.2°C 82% 6.6 mph SW10.6 kmh SW 7.6 mph12.2 kmh 30.18 in1022.0 mb 0.00 in0.0 mm 0.00 in0.0 mm 0.00 in0.0 mm
02:00 AM 48.5°F9.2°C 43.2°F6.2°C 82% 5.8 mph SW9.3 kmh SW 6.5 mph10.5 kmh 30.18 in1022.0 mb 0.00 in0.0 mm 0.00 in0.0 mm 0.00 in0.0 mm
02:05 AM 48.3°F9.1°C 43.1°F6.2°C 82% 5.6 mph SW9.0 kmh SW 7.4 mph11.9 kmh 30.18 in1022.0 mb 0.00 in0.0 mm 0.00 in0.0 mm 0.00 in0.0 mm
02:10 AM 48.1°F8.9°C 43.1°F6.2°C 83% 5.1 mph SW8.2 kmh SW 8.1 mph13.0 kmh 30.18 in1022.0 mb 0.00 in0.0 mm 0.00 in0.0 mm 0.00 in0.0 mm
02:15 AM 48.0°F8.9°C 43.1°F6.2°C 83% 5.4 mph SW8.7 kmh SW 8.7 mph14.0 kmh 30.18 in1022.0 mb 0.00 in0.0 mm 0.00 in0.0 mm 0.00 in0.0 mm
02:20 AM 48.0°F8.9°C 43.1°F6.2°C 83% 6.3 mph WSW10.1 kmh WSW 11.2 mph18.0 kmh 30.18 in1022.0 mb 0.00 in0.0 mm 0.00 in0.0 mm 0.00 in0.0 mm
02:25 AM 48.0°F8.9°C 43.1°F6.2°C 83% 6.7 mph WSW10.8 kmh WSW 10.3 mph16.6 kmh 30.18 in1022.0 mb 0.00 in0.0 mm 0.00 in0.0 mm 0.00 in0.0 mm
02:30 AM 48.0°F8.9°C 43.1°F6.2°C 83% 8.1 mph WSW13.0 kmh WSW 10.7 mph17.2 kmh 30.19 in1022.4 mb 0.00 in0.0 mm 0.00 in0.0 mm 0.00 in0.0 mm
02:35 AM 48.0°F8.9°C 43.1°F6.2°C 83% 8.2 mph WSW13.2 kmh WSW 12.3 mph19.8 kmh 30.19 in1022.4 mb 0.00 in0.0 mm 0.00 in0.0 mm 0.00 in0.0 mm
02:40 AM 48.1°F8.9°C 43.2°F6.2°C 83% 8.5 mph WSW13.7 kmh WSW 9.6 mph15.4 kmh 30.18 in1022.0 mb 0.00 in0.0 mm 0.00 in0.0 mm 0.00 in0.0 mm
02:45 AM 48.3°F9.1°C 43.4°F6.3°C 83% 7.6 mph WSW12.2 kmh WSW 8.5 mph13.7 kmh 30.18 in1022.0 mb 0.00 in0.0 mm 0.00 in0.0 mm 0.00 in0.0 mm
02:50 AM 48.4°F9.1°C 43.5°F6.4°C 83% 5.1 mph WSW8.2 kmh WSW 5.4 mph8.7 kmh 30.18 in1022.0 mb 0.00 in0.0 mm 0.00 in0.0 mm 0.00 in0.0 mm
02:55 AM 48.5°F9.2°C 43.3°F6.3°C 82% 4.6 mph WSW7.4 kmh WSW 5.1 mph8.2 kmh 30.17 in1021.7 mb 0.00 in0.0 mm 0.00 in0.0 mm 0.00 in0.0 mm
03:00 AM 48.6°F9.2°C 43.3°F6.3°C 82% 3.1 mph WSW5.0 kmh WSW 3.1 mph5.0 kmh 30.17 in1021.7 mb 0.00 in0.0 mm 0.00 in0.0 mm 0.00 in0.0 mm
03:05 AM 48.6°F9.2°C 43.3°F6.3°C 82% 2.7 mph WSW4.3 kmh WSW 3.6 mph5.8 kmh 30.17 in1021.7 mb 0.00 in0.0 mm 0.00 in0.0 mm 0.00 in0.0 mm
03:10 AM 48.6°F9.2°C 43.3°F6.3°C 82% 1.3 mph WNW2.1 kmh WNW 7.4 mph11.9 kmh 30.17 in1021.7 mb 0.00 in0.0 mm 0.00 in0.0 mm 0.00 in0.0 mm
03:15 AM 48.6°F9.2°C 43.2°F6.2°C 82% 1.9 mph WNW3.1 kmh WNW 5.4 mph8.7 kmh 30.17 in1021.7 mb 0.00 in0.0 mm 0.00 in0.0 mm 0.00 in0.0 mm
03:20 AM 48.4°F9.1°C 42.8°F6.0°C 81% 3.6 mph WNW5.8 kmh WNW 4.7 mph7.6 kmh 30.17 in1021.7 mb 0.00 in0.0 mm 0.00 in0.0 mm 0.00 in0.0 mm
03:25 AM 48.4°F9.1°C 43.1°F6.2°C 82% 3.5 mph W5.6 kmh W 5.1 mph8.2 kmh 30.17 in1021.7 mb 0.00 in0.0 mm 0.00 in0.0 mm 0.00 in0.0 mm
03:30 AM 48.3°F9.1°C 43.1°F6.2°C 82% 3.1 mph WSW5.0 kmh WSW 5.8 mph9.3 kmh 30.17 in1021.7 mb 0.00 in0.0 mm 0.00 in0.0 mm 0.00 in0.0 mm
03:35 AM 48.2°F9.0°C 43.0°F6.1°C 82% 3.5 mph WSW5.6 kmh WSW 8.7 mph14.0 kmh 30.17 in1021.7 mb 0.00 in0.0 mm 0.00 in0.0 mm 0.00 in0.0 mm
03:40 AM 48.2°F9.0°C 43.0°F6.1°C 82% 4.7 mph WSW7.6 kmh WSW 10.1 mph16.3 kmh 30.17 in1021.7 mb 0.00 in0.0 mm 0.00 in0.0 mm 0.00 in0.0 mm
03:45 AM 48.2°F9.0°C 43.0°F6.1°C 82% 5.4 mph WSW8.7 kmh WSW 11.2 mph18.0 kmh 30.17 in1021.7 mb 0.00 in0.0 mm 0.00 in0.0 mm 0.00 in0.0 mm
03:50 AM 48.4°F9.1°C 43.2°F6.2°C 82% 7.4 mph WSW11.9 kmh WSW 12.3 mph19.8 kmh 30.17 in1021.7 mb 0.00 in0.0 mm 0.00 in0.0 mm 0.00 in0.0 mm
03:55 AM 48.6°F9.2°C 43.3°F6.3°C 82% 7.4 mph WSW11.9 kmh WSW 7.4 mph11.9 kmh 30.17 in1021.7 mb 0.00 in0.0 mm 0.00 in0.0 mm 0.00 in0.0 mm
04:00 AM 48.7°F9.3°C 43.2°F6.2°C 81% 7.4 mph WSW11.9 kmh WSW 7.4 mph11.9 kmh 30.16 in1021.3 mb 0.00 in0.0 mm 0.00 in0.0 mm 0.00 in0.0 mm
04:05 AM 48.8°F9.3°C 43.2°F6.2°C 81% 6.5 mph WSW10.5 kmh WSW 7.4 mph11.9 kmh 30.16 in1021.3 mb 0.00 in0.0 mm 0.00 in0.0 mm 0.00 in0.0 mm
04:10 AM 48.9°F9.4°C 43.3°F6.3°C 81% 4.0 mph WSW6.4 kmh WSW 7.4 mph11.9 kmh 30.16 in1021.3 mb 0.00 in0.0 mm 0.00 in0.0 mm 0.00 in0.0 mm
04:15 AM 48.9°F9.4°C 43.1°F6.2°C 80% 4.3 mph WSW6.9 kmh WSW 6.5 mph10.5 kmh 30.16 in1021.3 mb 0.00 in0.0 mm 0.00 in0.0 mm 0.00 in0.0 mm
04:20 AM 48.9°F9.4°C 43.0°F6.1°C 80% 5.1 mph SW8.2 kmh SW 7.6 mph12.2 kmh 30.16 in1021.3 mb 0.00 in0.0 mm 0.00 in0.0 mm 0.00 in0.0 mm
04:25 AM 48.9°F9.4°C 43.0°F6.1°C 80% 5.1 mph SW8.2 kmh SW 6.5 mph10.5 kmh 30.15 in1021.0 mb 0.00 in0.0 mm 0.00 in0.0 mm 0.00 in0.0 mm
04:30 AM 48.9°F9.4°C 43.0°F6.1°C 80% 5.1 mph WSW8.2 kmh WSW 5.1 mph8.2 kmh 30.15 in1021.0 mb 0.00 in0.0 mm 0.00 in0.0 mm 0.00 in0.0 mm
04:35 AM 48.9°F9.4°C 43.0°F6.1°C 80% 4.9 mph WSW7.9 kmh WSW 7.4 mph11.9 kmh 30.15 in1021.0 mb 0.00 in0.0 mm 0.00 in0.0 mm 0.00 in0.0 mm
04:40 AM 48.9°F9.4°C 43.0°F6.1°C 80% 4.0 mph WSW6.4 kmh WSW 10.7 mph17.2 kmh 30.15 in1021.0 mb 0.00 in0.0 mm 0.00 in0.0 mm 0.00 in0.0 mm
04:45 AM 49.0°F9.4°C 42.9°F6.1°C 79% 5.0 mph WSW8.0 kmh WSW 10.1 mph16.3 kmh 30.16 in1021.3 mb 0.00 in0.0 mm 0.00 in0.0 mm 0.00 in0.0 mm
04:50 AM 49.0°F9.4°C 42.8°F6.0°C 79% 7.6 mph WSW12.2 kmh WSW 12.3 mph19.8 kmh 30.16 in1021.3 mb 0.00 in0.0 mm 0.00 in0.0 mm 0.00 in0.0 mm
04:55 AM 49.1°F9.5°C 42.8°F6.0°C 79% 7.8 mph WSW12.6 kmh WSW 11.4 mph18.3 kmh 30.16 in1021.3 mb 0.00 in0.0 mm 0.00 in0.0 mm 0.00 in0.0 mm
05:00 AM 49.3°F9.6°C 43.0°F6.1°C 79% 8.5 mph WSW13.7 kmh WSW 8.7 mph14.0 kmh 30.16 in1021.3 mb 0.00 in0.0 mm 0.00 in0.0 mm 0.00 in0.0 mm
05:05 AM 49.3°F9.6°C 43.1°F6.2°C 79% 8.1 mph WSW13.0 kmh WSW 8.5 mph13.7 kmh 30.16 in1021.3 mb 0.00 in0.0 mm 0.00 in0.0 mm 0.00 in0.0 mm
05:10 AM 49.5°F9.7°C 43.2°F6.2°C 79% 6.9 mph WSW11.1 kmh WSW 8.1 mph13.0 kmh 30.16 in1021.3 mb 0.00 in0.0 mm 0.00 in0.0 mm 0.00 in0.0 mm
05:15 AM 49.6°F9.8°C 43.3°F6.3°C 79% 6.5 mph WSW10.5 kmh WSW 6.9 mph11.1 kmh 30.16 in1021.3 mb 0.00 in0.0 mm 0.00 in0.0 mm 0.00 in0.0 mm
05:20 AM 49.6°F9.8°C 43.4°F6.3°C 79% 5.1 mph W8.2 kmh W 5.1 mph8.2 kmh 30.16 in1021.3 mb 0.00 in0.0 mm 0.00 in0.0 mm 0.00 in0.0 mm
05:25 AM 49.8°F9.9°C 43.3°F6.3°C 78% 4.9 mph WSW7.9 kmh WSW 8.1 mph13.0 kmh 30.15 in1021.0 mb 0.00 in0.0 mm 0.00 in0.0 mm 0.00 in0.0 mm
05:30 AM 49.8°F9.9°C 43.2°F6.2°C 78% 4.3 mph SW6.9 kmh SW 6.9 mph11.1 kmh 30.14 in1020.7 mb 0.00 in0.0 mm 0.00 in0.0 mm 0.00 in0.0 mm
05:35 AM 49.9°F9.9°C 43.3°F6.3°C 78% 4.5 mph WSW7.2 kmh WSW 7.6 mph12.2 kmh 30.14 in1020.7 mb 0.00 in0.0 mm 0.00 in0.0 mm 0.00 in0.0 mm
05:40 AM 50.0°F10.0°C 43.1°F6.2°C 77% 5.4 mph WSW8.7 kmh WSW 6.9 mph11.1 kmh 30.15 in1021.0 mb 0.00 in0.0 mm 0.00 in0.0 mm 0.00 in0.0 mm
05:45 AM 50.2°F10.1°C 43.2°F6.2°C 77% 5.2 mph WSW8.4 kmh WSW 6.3 mph10.1 kmh 30.15 in1021.0 mb 0.00 in0.0 mm 0.00 in0.0 mm 0.00 in0.0 mm
05:50 AM 50.2°F10.1°C 43.3°F6.3°C 77% 4.7 mph WSW7.6 kmh WSW 6.5 mph10.5 kmh 30.15 in1021.0 mb 0.00 in0.0 mm 0.00 in0.0 mm 0.00 in0.0 mm
05:55 AM 50.2°F10.1°C 43.2°F6.2°C 77% 4.8 mph WSW7.7 kmh WSW 10.1 mph16.3 kmh 30.15 in1021.0 mb 0.00 in0.0 mm 0.00 in0.0 mm 0.00 in0.0 mm
06:00 AM 50.2°F10.1°C 42.9°F6.1°C 76% 5.1 mph SW8.2 kmh SW 14.1 mph22.7 kmh 30.15 in1021.0 mb 0.00 in0.0 mm 0.00 in0.0 mm 0.00 in0.0 mm
06:05 AM 50.3°F10.2°C 43.0°F6.1°C 76% 6.3 mph SW10.1 kmh SW 15.7 mph25.3 kmh 30.15 in1021.0 mb 0.00 in0.0 mm 0.00 in0.0 mm 0.00 in0.0 mm
06:10 AM 50.4°F10.2°C 43.1°F6.2°C 76% 9.6 mph WSW15.4 kmh WSW 14.5 mph23.3 kmh 30.16 in1021.3 mb 0.00 in0.0 mm 0.00 in0.0 mm 0.00 in0.0 mm
06:15 AM 50.5°F10.3°C 43.2°F6.2°C 76% 9.8 mph WSW15.8 kmh WSW 12.5 mph20.1 kmh 30.16 in1021.3 mb 0.00 in0.0 mm 0.00 in0.0 mm 0.00 in0.0 mm
06:20 AM 50.7°F10.4°C 43.4°F6.3°C 76% 10.3 mph WSW16.6 kmh WSW 11.4 mph18.3 kmh 30.16 in1021.3 mb 0.00 in0.0 mm 0.00 in0.0 mm 0.00 in0.0 mm
06:25 AM 51.0°F10.6°C 43.5°F6.4°C 75% 9.8 mph WSW15.8 kmh WSW 10.3 mph16.6 kmh 30.16 in1021.3 mb 0.00 in0.0 mm 0.00 in0.0 mm 0.00 in0.0 mm
06:30 AM 51.2°F10.7°C 43.6°F6.4°C 75% 8.5 mph WSW13.7 kmh WSW 8.5 mph13.7 kmh 30.16 in1021.3 mb 0.00 in0.0 mm 0.00 in0.0 mm 0.00 in0.0 mm
06:35 AM 51.4°F10.8°C 43.5°F6.4°C 74% 8.1 mph WSW13.0 kmh WSW 10.1 mph16.3 kmh 30.16 in1021.3 mb 0.00 in0.0 mm 0.00 in0.0 mm 0.00 in0.0 mm
06:40 AM 51.5°F10.8°C 43.5°F6.4°C 74% 6.9 mph SW11.1 kmh SW 10.3 mph16.6 kmh 30.16 in1021.3 mb 0.00 in0.0 mm 0.00 in0.0 mm 0.00 in0.0 mm
06:45 AM 51.6°F10.9°C 43.4°F6.3°C 74% 7.4 mph SW11.9 kmh SW 13.6 mph21.9 kmh 30.16 in1021.3 mb 0.00 in0.0 mm 0.00 in0.0 mm 0.00 in0.0 mm
06:50 AM 51.6°F10.9°C 43.5°F6.4°C 74% 8.7 mph SW14.0 kmh SW 12.5 mph20.1 kmh 30.16 in1021.3 mb 0.00 in0.0 mm 0.00 in0.0 mm 0.00 in0.0 mm
06:55 AM 51.9°F11.1°C 44.0°F6.7°C 74% 9.0 mph SW14.5 kmh SW 13.6 mph21.9 kmh 30.16 in1021.3 mb 0.00 in0.0 mm 0.00 in0.0 mm 0.00 in0.0 mm
07:00 AM 52.1°F11.2°C 44.4°F6.9°C 75% 9.6 mph SW15.4 kmh SW 10.7 mph17.2 kmh 30.16 in1021.3 mb 0.00 in0.0 mm 0.00 in0.0 mm 0.00 in0.0 mm
07:05 AM 52.2°F11.2°C 44.3°F6.8°C 74% 9.3 mph SW15.0 kmh SW 13.6 mph21.9 kmh 30.16 in1021.3 mb 0.00 in0.0 mm 0.00 in0.0 mm 0.00 in0.0 mm
07:10 AM 52.4°F11.3°C 44.0°F6.7°C 73% 8.5 mph WSW13.7 kmh WSW 15.7 mph25.3 kmh 30.16 in1021.3 mb 0.00 in0.0 mm 0.00 in0.0 mm 0.00 in0.0 mm
07:15 AM 52.8°F11.6°C 43.9°F6.6°C 72% 9.1 mph WSW14.6 kmh WSW 11.4 mph18.3 kmh 30.16 in1021.3 mb 0.00 in0.0 mm 0.00 in0.0 mm 0.00 in0.0 mm
07:20 AM 53.1°F11.7°C 43.9°F6.6°C 71% 10.7 mph WSW17.2 kmh WSW 10.7 mph17.2 kmh 30.16 in1021.3 mb 0.00 in0.0 mm 0.00 in0.0 mm 0.00 in0.0 mm
07:25 AM 53.2°F11.8°C 43.7°F6.5°C 70% 9.8 mph WSW15.8 kmh WSW 10.7 mph17.2 kmh 30.16 in1021.3 mb 0.00 in0.0 mm 0.00 in0.0 mm 0.00 in0.0 mm
07:30 AM 53.2°F11.8°C 43.7°F6.5°C 70% 6.9 mph WSW11.1 kmh WSW 7.6 mph12.2 kmh 30.16 in1021.3 mb 0.00 in0.0 mm 0.00 in0.0 mm 0.00 in0.0 mm
07:35 AM 53.2°F11.8°C 43.9°F6.6°C 70% 6.8 mph WSW10.9 kmh WSW 10.1 mph16.3 kmh 30.16 in1021.3 mb 0.00 in0.0 mm 0.00 in0.0 mm 0.00 in0.0 mm
07:40 AM 53.2°F11.8°C 44.1°F6.7°C 71% 6.3 mph WSW10.1 kmh WSW 9.2 mph14.8 kmh 30.16 in1021.3 mb 0.00 in0.0 mm 0.00 in0.0 mm 0.00 in0.0 mm
07:45 AM 53.2°F11.8°C 44.1°F6.7°C 71% 6.8 mph WSW10.9 kmh WSW 11.4 mph18.3 kmh 30.16 in1021.3 mb 0.00 in0.0 mm 0.00 in0.0 mm 0.00 in0.0 mm
07:50 AM 53.5°F11.9°C 44.3°F6.8°C 71% 8.5 mph WSW13.7 kmh WSW 11.4 mph18.3 kmh 30.16 in1021.3 mb 0.00 in0.0 mm 0.00 in0.0 mm 0.00 in0.0 mm
07:55 AM 53.6°F12.0°C 44.5°F6.9°C 71% 8.5 mph WSW13.7 kmh WSW 11.4 mph18.3 kmh 30.17 in1021.7 mb 0.00 in0.0 mm 0.00 in0.0 mm 0.00 in0.0 mm
08:00 AM 53.8°F12.1°C 44.6°F7.0°C 71% 8.5 mph WSW13.7 kmh WSW 8.5 mph13.7 kmh 30.17 in1021.7 mb 0.00 in0.0 mm 0.00 in0.0 mm 0.00 in0.0 mm
08:05 AM 53.9°F12.2°C 44.8°F7.1°C 71% 7.8 mph WSW12.6 kmh WSW 8.5 mph13.7 kmh 30.17 in1021.7 mb 0.00 in0.0 mm 0.00 in0.0 mm 0.00 in0.0 mm
08:10 AM 53.8°F12.1°C 44.6°F7.0°C 71% 5.8 mph WSW9.3 kmh WSW 7.4 mph11.9 kmh 30.17 in1021.7 mb 0.00 in0.0 mm 0.00 in0.0 mm 0.00 in0.0 mm
08:15 AM 53.8°F12.1°C 44.7°F7.1°C 71% 5.8 mph WSW9.3 kmh WSW 7.6 mph12.2 kmh 30.16 in1021.3 mb 0.00 in0.0 mm 0.00 in0.0 mm 0.00 in0.0 mm
08:20 AM 53.7°F12.1°C 44.9°F7.2°C 72% 5.8 mph WSW9.3 kmh WSW 8.1 mph13.0 kmh 30.16 in1021.3 mb 0.00 in0.0 mm 0.00 in0.0 mm 0.00 in0.0 mm
08:25 AM 53.3°F11.8°C 44.9°F7.2°C 73% 5.6 mph WSW9.0 kmh WSW 6.3 mph10.1 kmh 30.16 in1021.3 mb 0.00 in0.0 mm 0.00 in0.0 mm 0.00 in0.0 mm
08:30 AM 52.9°F11.6°C 45.0°F7.2°C 74% 5.1 mph SW8.2 kmh SW 7.6 mph12.2 kmh 30.16 in1021.3 mb 0.00 in0.0 mm 0.00 in0.0 mm 0.00 in0.0 mm
08:35 AM 52.6°F11.4°C 45.1°F7.3°C 76% 5.1 mph SW8.2 kmh SW 6.5 mph10.5 kmh 30.16 in1021.3 mb 0.00 in0.0 mm 0.00 in0.0 mm 0.00 in0.0 mm
08:40 AM 52.3°F11.3°C 45.1°F7.3°C 77% 5.1 mph SW8.2 kmh SW 5.4 mph8.7 kmh 30.16 in1021.3 mb 0.00 in0.0 mm 0.00 in0.0 mm 0.00 in0.0 mm
08:45 AM 52.1°F11.2°C 45.2°F7.3°C 77% 4.9 mph SW7.9 kmh SW 5.8 mph9.3 kmh 30.16 in1021.3 mb 0.00 in0.0 mm 0.00 in0.0 mm 0.00 in0.0 mm
08:50 AM 52.0°F11.1°C 45.3°F7.4°C 78% 4.3 mph SW6.9 kmh SW 6.5 mph10.5 kmh 30.16 in1021.3 mb 0.00 in0.0 mm 0.00 in0.0 mm 0.00 in0.0 mm
08:55 AM 51.9°F11.1°C 45.3°F7.4°C 78% 4.5 mph SW7.2 kmh SW 7.4 mph11.9 kmh 30.17 in1021.7 mb 0.00 in0.0 mm 0.00 in0.0 mm 0.00 in0.0 mm
09:00 AM 51.8°F11.0°C 45.5°F7.5°C 79% 5.1 mph WSW8.2 kmh WSW 8.1 mph13.0 kmh 30.17 in1021.7 mb 0.00 in0.0 mm 0.00 in0.0 mm 0.00 in0.0 mm
09:05 AM 51.9°F11.1°C 45.6°F7.6°C 79% 5.2 mph WSW8.4 kmh WSW 7.6 mph12.2 kmh 30.17 in1021.7 mb 0.00 in0.0 mm 0.00 in0.0 mm 0.00 in0.0 mm
09:10 AM 52.0°F11.1°C 45.7°F7.6°C 79% 5.4 mph SW8.7 kmh SW 6.3 mph10.1 kmh 30.17 in1021.7 mb 0.00 in0.0 mm 0.00 in0.0 mm 0.00 in0.0 mm
09:15 AM 52.1°F11.2°C 45.8°F7.7°C 79% 5.2 mph SW8.4 kmh SW 5.8 mph9.3 kmh 30.17 in1021.7 mb 0.00 in0.0 mm 0.00 in0.0 mm 0.00 in0.0 mm
09:20 AM 52.2°F11.2°C 45.9°F7.7°C 79% 4.7 mph SW7.6 kmh SW 5.8 mph9.3 kmh 30.17 in1021.7 mb 0.00 in0.0 mm 0.00 in0.0 mm 0.00 in0.0 mm
09:25 AM 52.7°F11.5°C 46.4°F8.0°C 79% 4.7 mph SW7.6 kmh SW 7.4 mph11.9 kmh 30.17 in1021.7 mb 0.00 in0.0 mm 0.00 in0.0 mm 0.00 in0.0 mm
09:30 AM 53.4°F11.9°C 46.8°F8.2°C 78% 4.7 mph SW7.6 kmh SW 7.4 mph11.9 kmh 30.17 in1021.7 mb 0.00 in0.0 mm 0.00 in0.0 mm 0.00 in0.0 mm
09:35 AM 54.2°F12.3°C 46.7°F8.2°C 76% 4.9 mph SW7.9 kmh SW 8.1 mph13.0 kmh 30.17 in1021.7 mb 0.00 in0.0 mm 0.00 in0.0 mm 0.00 in0.0 mm
09:40 AM 54.8°F12.7°C 46.6°F8.1°C 74% 5.4 mph SW8.7 kmh SW 8.5 mph13.7 kmh 30.18 in1022.0 mb 0.00 in0.0 mm 0.00 in0.0 mm 0.00 in0.0 mm
09:45 AM 55.0°F12.8°C 46.5°F8.1°C 73% 5.4 mph SW8.7 kmh SW 8.5 mph13.7 kmh 30.18 in1022.0 mb 0.00 in0.0 mm 0.00 in0.0 mm 0.00 in0.0 mm
09:50 AM 55.1°F12.8°C 46.4°F8.0°C 72% 5.4 mph SSW8.7 kmh SSW 9.6 mph15.4 kmh 30.18 in1022.0 mb 0.00 in0.0 mm 0.00 in0.0 mm 0.00 in0.0 mm
09:55 AM 54.8°F12.7°C 46.1°F7.8°C 72% 5.6 mph SSW9.0 kmh SSW 10.3 mph16.6 kmh 30.19 in1022.4 mb 0.00 in0.0 mm 0.00 in0.0 mm 0.00 in0.0 mm
10:00 AM 54.3°F12.4°C 46.0°F7.8°C 73% 6.3 mph SSW10.1 kmh SSW 11.2 mph18.0 kmh 30.19 in1022.4 mb 0.00 in0.0 mm 0.00 in0.0 mm 0.00 in0.0 mm
10:05 AM 54.1°F12.3°C 46.1°F7.8°C 74% 6.4 mph SSW10.3 kmh SSW 7.6 mph12.2 kmh 30.19 in1022.4 mb 0.00 in0.0 mm 0.00 in0.0 mm 0.00 in0.0 mm
10:10 AM 54.0°F12.2°C 46.2°F7.9°C 75% 6.9 mph SSW11.1 kmh SSW 8.5 mph13.7 kmh 30.20 in1022.7 mb 0.00 in0.0 mm 0.00 in0.0 mm 0.00 in0.0 mm
10:15 AM 54.2°F12.3°C 46.5°F8.1°C 75% 6.6 mph SSW10.6 kmh SSW 8.5 mph13.7 kmh 30.20 in1022.7 mb 0.00 in0.0 mm 0.00 in0.0 mm 0.00 in0.0 mm
10:20 AM 54.8°F12.7°C 47.0°F8.3°C 75% 5.8 mph SW9.3 kmh SW 8.7 mph14.0 kmh 30.20 in1022.7 mb 0.00 in0.0 mm 0.00 in0.0 mm 0.00 in0.0 mm
10:25 AM 55.7°F13.2°C 47.1°F8.4°C 73% 5.5 mph SW8.9 kmh SW 6.9 mph11.1 kmh 30.20 in1022.7 mb 0.00 in0.0 mm 0.00 in0.0 mm 0.00 in0.0 mm
10:30 AM 56.3°F13.5°C 46.5°F8.1°C 70% 4.7 mph SW7.6 kmh SW 9.6 mph15.4 kmh 30.21 in1023.0 mb 0.00 in0.0 mm 0.00 in0.0 mm 0.00 in0.0 mm
10:35 AM 56.5°F13.6°C 46.1°F7.8°C 68% 5.0 mph SW8.0 kmh SW 8.1 mph13.0 kmh 30.21 in1023.0 mb 0.00 in0.0 mm 0.00 in0.0 mm 0.00 in0.0 mm
10:40 AM 56.7°F13.7°C 46.3°F7.9°C 68% 5.8 mph SW9.3 kmh SW 6.5 mph10.5 kmh 30.21 in1023.0 mb 0.00 in0.0 mm 0.00 in0.0 mm 0.00 in0.0 mm
10:45 AM 57.2°F14.0°C 46.5°F8.1°C 67% 5.4 mph SW8.7 kmh SW 6.5 mph10.5 kmh 30.21 in1023.0 mb 0.00 in0.0 mm 0.00 in0.0 mm 0.00 in0.0 mm
10:50 AM 57.7°F14.3°C 46.2°F7.9°C 65% 4.3 mph SW6.9 kmh SW 5.1 mph8.2 kmh 30.21 in1023.0 mb 0.00 in0.0 mm 0.00 in0.0 mm 0.00 in0.0 mm
10:55 AM 58.2°F14.6°C 46.0°F7.8°C 64% 4.0 mph SW6.4 kmh SW 5.4 mph8.7 kmh 30.20 in1022.7 mb 0.00 in0.0 mm 0.00 in0.0 mm 0.00 in0.0 mm
11:00 AM 58.9°F14.9°C 46.7°F8.2°C 64% 3.1 mph SSW5.0 kmh SSW 8.5 mph13.7 kmh 30.20 in1022.7 mb 0.00 in0.0 mm 0.00 in0.0 mm 0.00 in0.0 mm
11:05 AM 59.9°F15.5°C 46.8°F8.2°C 62% 3.5 mph SW5.6 kmh SW 7.6 mph12.2 kmh 30.20 in1022.7 mb 0.00 in0.0 mm 0.00 in0.0 mm 0.00 in0.0 mm
11:10 AM 60.7°F15.9°C 46.9°F8.3°C 60% 4.7 mph SW7.6 kmh SW 8.1 mph13.0 kmh 30.21 in1023.0 mb 0.00 in0.0 mm 0.00 in0.0 mm 0.00 in0.0 mm
11:15 AM 61.1°F16.2°C 46.9°F8.3°C 60% 4.6 mph SW7.4 kmh SW 9.2 mph14.8 kmh 30.21 in1023.0 mb 0.00 in0.0 mm 0.00 in0.0 mm 0.00 in0.0 mm
11:20 AM 61.0°F16.1°C 47.2°F8.4°C 60% 4.3 mph SW6.9 kmh SW 8.7 mph14.0 kmh 30.21 in1023.0 mb 0.00 in0.0 mm 0.00 in0.0 mm 0.00 in0.0 mm
11:25 AM 61.2°F16.2°C 46.9°F8.3°C 59% 4.8 mph SW7.7 kmh SW 10.1 mph16.3 kmh 30.21 in1023.0 mb 0.00 in0.0 mm 0.00 in0.0 mm 0.00 in0.0 mm
11:30 AM 61.7°F16.5°C 46.7°F8.2°C 58% 6.3 mph SW10.1 kmh SW 7.6 mph12.2 kmh 30.21 in1023.0 mb 0.00 in0.0 mm 0.00 in0.0 mm 0.00 in0.0 mm
11:35 AM 62.0°F16.7°C 46.6°F8.1°C 57% 5.9 mph SW9.5 kmh SW 7.4 mph11.9 kmh 30.21 in1023.0 mb 0.00 in0.0 mm 0.00 in0.0 mm 0.00 in0.0 mm
11:40 AM 62.0°F16.7°C 47.2°F8.4°C 58% 4.7 mph SW7.6 kmh SW 4.7 mph7.6 kmh 30.21 in1023.0 mb 0.00 in0.0 mm 0.00 in0.0 mm 0.00 in0.0 mm
11:45 AM 61.6°F16.4°C 47.8°F8.8°C 60% 4.2 mph SW6.8 kmh SW 4.7 mph7.6 kmh 30.21 in1023.0 mb 0.00 in0.0 mm 0.00 in0.0 mm 0.00 in0.0 mm
11:50 AM 61.2°F16.2°C 47.8°F8.8°C 61% 2.9 mph S4.7 kmh S 5.4 mph8.7 kmh 30.21 in1023.0 mb 0.00 in0.0 mm 0.00 in0.0 mm 0.00 in0.0 mm
11:55 AM 60.7°F15.9°C 47.9°F8.8°C 63% 3.0 mph S4.8 kmh S 5.4 mph8.7 kmh 30.20 in1022.7 mb 0.00 in0.0 mm 0.00 in0.0 mm 0.00 in0.0 mm
12:00 PM 60.5°F15.8°C 48.3°F9.1°C 64% 3.1 mph S5.0 kmh S 7.4 mph11.9 kmh 30.20 in1022.7 mb 0.00 in0.0 mm 0.00 in0.0 mm 0.00 in0.0 mm
12:05 PM 60.3°F15.7°C 48.2°F9.0°C 64% 3.4 mph S5.5 kmh S 6.3 mph10.1 kmh 30.20 in1022.7 mb 0.00 in0.0 mm 0.00 in0.0 mm 0.00 in0.0 mm
12:10 PM 60.1°F15.6°C 48.6°F9.2°C 66% 4.0 mph SE6.4 kmh SE 6.3 mph10.1 kmh 30.20 in1022.7 mb 0.00 in0.0 mm 0.00 in0.0 mm 0.00 in0.0 mm
12:15 PM 60.3°F15.7°C 48.5°F9.2°C 65% 4.0 mph SSE6.4 kmh SSE 4.7 mph7.6 kmh 30.20 in1022.7 mb 0.00 in0.0 mm 0.00 in0.0 mm 0.00 in0.0 mm
12:20 PM 60.5°F15.8°C 48.7°F9.3°C 65% 4.0 mph SSW6.4 kmh SSW 5.4 mph8.7 kmh 30.20 in1022.7 mb 0.00 in0.0 mm 0.00 in0.0 mm 0.00 in0.0 mm
12:25 PM 60.6°F15.9°C 48.6°F9.2°C 64% 4.0 mph SSW6.4 kmh SSW 7.4 mph11.9 kmh 30.19 in1022.4 mb 0.00 in0.0 mm 0.00 in0.0 mm 0.00 in0.0 mm
12:30 PM 60.5°F15.8°C 48.7°F9.3°C 65% 4.0 mph SSW6.4 kmh SSW 8.1 mph13.0 kmh 30.19 in1022.4 mb 0.00 in0.0 mm 0.00 in0.0 mm 0.00 in0.0 mm
12:35 PM 60.4°F15.8°C 48.6°F9.2°C 65% 4.5 mph SSW7.2 kmh SSW 9.2 mph14.8 kmh 30.19 in1022.4 mb 0.00 in0.0 mm 0.00 in0.0 mm 0.00 in0.0 mm
12:40 PM 60.7°F15.9°C 48.7°F9.3°C 65% 5.8 mph SSW9.3 kmh SSW 8.7 mph14.0 kmh 30.18 in1022.0 mb 0.00 in0.0 mm 0.00 in0.0 mm 0.00 in0.0 mm
12:45 PM 61.1°F16.2°C 48.4°F9.1°C 63% 6.1 mph SSW9.8 kmh SSW 10.1 mph16.3 kmh 30.18 in1022.0 mb 0.00 in0.0 mm 0.00 in0.0 mm 0.00 in0.0 mm
12:50 PM 61.7°F16.5°C 48.0°F8.9°C 61% 6.9 mph SW11.1 kmh SW 10.1 mph16.3 kmh 30.18 in1022.0 mb 0.00 in0.0 mm 0.00 in0.0 mm 0.00 in0.0 mm
12:55 PM 62.2°F16.8°C 47.6°F8.7°C 59% 6.9 mph SW11.1 kmh SW 10.3 mph16.6 kmh 30.18 in1022.0 mb 0.00 in0.0 mm 0.00 in0.0 mm 0.00 in0.0 mm
01:00 PM 62.7°F17.1°C 47.7°F8.7°C 58% 6.9 mph SW11.1 kmh SW 9.2 mph14.8 kmh 30.17 in1021.7 mb 0.00 in0.0 mm 0.00 in0.0 mm 0.00 in0.0 mm
01:05 PM 63.1°F17.3°C 47.8°F8.8°C 57% 6.8 mph SSW10.9 kmh SSW 10.1 mph16.3 kmh 30.17 in1021.7 mb 0.00 in0.0 mm 0.00 in0.0 mm 0.00 in0.0 mm
01:10 PM 63.1°F17.3°C 47.7°F8.7°C 57% 6.3 mph SSW10.1 kmh SSW 9.2 mph14.8 kmh 30.17 in1021.7 mb 0.00 in0.0 mm 0.00 in0.0 mm 0.00 in0.0 mm
01:15 PM 63.3°F17.4°C 47.6°F8.7°C 57% 6.3 mph SSW10.1 kmh SSW 11.2 mph18.0 kmh 30.16 in1021.3 mb 0.00 in0.0 mm 0.00 in0.0 mm 0.00 in0.0 mm
01:20 PM 63.5°F17.5°C 47.7°F8.7°C 56% 6.5 mph SSW10.5 kmh SSW 7.6 mph12.2 kmh 30.16 in1021.3 mb 0.00 in0.0 mm 0.00 in0.0 mm 0.00 in0.0 mm
01:25 PM 63.8°F17.7°C 47.8°F8.8°C 56% 6.4 mph SSW10.3 kmh SSW 8.7 mph14.0 kmh 30.16 in1021.3 mb 0.00 in0.0 mm 0.00 in0.0 mm 0.00 in0.0 mm
01:30 PM 63.9°F17.7°C 48.2°F9.0°C 57% 6.3 mph SSW10.1 kmh SSW 7.6 mph12.2 kmh 30.16 in1021.3 mb 0.00 in0.0 mm 0.00 in0.0 mm 0.00 in0.0 mm
01:35 PM 64.1°F17.8°C 48.6°F9.2°C 57% 6.0 mph SSW9.7 kmh SSW 8.1 mph13.0 kmh 30.16 in1021.3 mb 0.00 in0.0 mm 0.00 in0.0 mm 0.00 in0.0 mm
01:40 PM 64.2°F17.9°C 49.1°F9.5°C 58% 5.4 mph SSW8.7 kmh SSW 5.4 mph8.7 kmh 30.16 in1021.3 mb 0.00 in0.0 mm 0.00 in0.0 mm 0.00 in0.0 mm
01:45 PM 64.6°F18.1°C 49.5°F9.7°C 58% 5.1 mph SW8.2 kmh SW 7.6 mph12.2 kmh 30.16 in1021.3 mb 0.00 in0.0 mm 0.00 in0.0 mm 0.00 in0.0 mm
01:50 PM 64.8°F18.2°C 49.4°F9.7°C 57% 4.3 mph SW6.9 kmh SW 7.6 mph12.2 kmh 30.16 in1021.3 mb 0.00 in0.0 mm 0.00 in0.0 mm 0.00 in0.0 mm
01:55 PM 64.9°F18.3°C 49.5°F9.7°C 57% 4.5 mph SW7.2 kmh SW 7.6 mph12.2 kmh 30.16 in1021.3 mb 0.00 in0.0 mm 0.00 in0.0 mm 0.00 in0.0 mm
02:00 PM 64.9°F18.3°C 49.7°F9.8°C 58% 5.4 mph SSW8.7 kmh SSW 9.6 mph15.4 kmh 30.16 in1021.3 mb 0.00 in0.0 mm 0.00 in0.0 mm 0.00 in0.0 mm
02:05 PM 64.8°F18.2°C 49.6°F9.8°C 58% 5.8 mph SSW9.3 kmh SSW 9.6 mph15.4 kmh 30.16 in1021.3 mb 0.00 in0.0 mm 0.00 in0.0 mm 0.00 in0.0 mm
02:10 PM 64.9°F18.3°C 50.0°F10.0°C 59% 6.9 mph SSW11.1 kmh SSW 7.4 mph11.9 kmh 30.16 in1021.3 mb 0.00 in0.0 mm 0.00 in0.0 mm 0.00 in0.0 mm
02:15 PM 65.1°F18.4°C 50.3°F10.2°C 59% 6.5 mph SW10.5 kmh SW 8.7 mph14.0 kmh 30.15 in1021.0 mb 0.00 in0.0 mm 0.00 in0.0 mm 0.00 in0.0 mm
02:20 PM 65.5°F18.6°C 50.4°F10.2°C 58% 5.1 mph SW8.2 kmh SW 9.6 mph15.4 kmh 30.15 in1021.0 mb 0.00 in0.0 mm 0.00 in0.0 mm 0.00 in0.0 mm
02:25 PM 65.9°F18.8°C 50.2°F10.1°C 57% 5.2 mph SW8.4 kmh SW 8.7 mph14.0 kmh 30.15 in1021.0 mb 0.00 in0.0 mm 0.00 in0.0 mm 0.00 in0.0 mm
02:30 PM 66.0°F18.9°C 50.3°F10.2°C 57% 5.4 mph SW8.7 kmh SW 9.2 mph14.8 kmh 30.15 in1021.0 mb 0.00 in0.0 mm 0.00 in0.0 mm 0.00 in0.0 mm
02:35 PM 65.8°F18.8°C 50.4°F10.2°C 58% 5.3 mph SW8.5 kmh SW 7.6 mph12.2 kmh 30.15 in1021.0 mb 0.00 in0.0 mm 0.00 in0.0 mm 0.00 in0.0 mm
02:40 PM 65.7°F18.7°C 50.5°F10.3°C 58% 5.1 mph SSW8.2 kmh SSW 8.5 mph13.7 kmh 30.15 in1021.0 mb 0.00 in0.0 mm 0.00 in0.0 mm 0.00 in0.0 mm
02:45 PM 65.7°F18.7°C 50.8°F10.4°C 59% 5.1 mph SSW8.2 kmh SSW 6.9 mph11.1 kmh 30.15 in1021.0 mb 0.00 in0.0 mm 0.00 in0.0 mm 0.00 in0.0 mm
02:50 PM 65.7°F18.7°C 50.5°F10.3°C 58% 5.1 mph S8.2 kmh S 5.1 mph8.2 kmh 30.15 in1021.0 mb 0.00 in0.0 mm 0.00 in0.0 mm 0.00 in0.0 mm
02:55 PM 65.7°F18.7°C 50.5°F10.3°C 58% 4.5 mph S7.2 kmh S 5.1 mph8.2 kmh 30.15 in1021.0 mb 0.00 in0.0 mm 0.00 in0.0 mm 0.00 in0.0 mm
03:00 PM 65.8°F18.8°C 50.6°F10.3°C 58% 2.5 mph E4.0 kmh E 5.1 mph8.2 kmh 30.15 in1021.0 mb 0.00 in0.0 mm 0.00 in0.0 mm 0.00 in0.0 mm
03:05 PM 66.0°F18.9°C 50.5°F10.3°C 58% 2.9 mph ESE4.7 kmh ESE 10.3 mph16.6 kmh 30.15 in1021.0 mb 0.00 in0.0 mm 0.00 in0.0 mm 0.00 in0.0 mm
03:10 PM 66.3°F19.1°C 50.6°F10.3°C 57% 4.0 mph SE6.4 kmh SE 6.9 mph11.1 kmh 30.15 in1021.0 mb 0.00 in0.0 mm 0.00 in0.0 mm 0.00 in0.0 mm
03:15 PM 66.5°F19.2°C 50.0°F10.0°C 55% 4.7 mph S7.6 kmh S 15.9 mph25.6 kmh 30.15 in1021.0 mb 0.00 in0.0 mm 0.00 in0.0 mm 0.00 in0.0 mm
03:20 PM 66.8°F19.3°C 48.8°F9.3°C 52% 6.5 mph WSW10.5 kmh WSW 17.4 mph28.0 kmh 30.15 in1021.0 mb 0.00 in0.0 mm 0.00 in0.0 mm 0.00 in0.0 mm
03:25 PM 66.9°F19.4°C 48.7°F9.3°C 52% 7.1 mph WSW11.4 kmh WSW 16.3 mph26.2 kmh 30.15 in1021.0 mb 0.00 in0.0 mm 0.00 in0.0 mm 0.00 in0.0 mm
03:30 PM 66.7°F19.3°C 48.5°F9.2°C 52% 8.7 mph NW14.0 kmh NW 16.8 mph27.0 kmh 30.16 in1021.3 mb 0.00 in0.0 mm 0.00 in0.0 mm 0.00 in0.0 mm
03:35 PM 66.4°F19.1°C 48.1°F8.9°C 52% 8.8 mph NW14.2 kmh NW 19.0 mph30.6 kmh 30.16 in1021.3 mb 0.00 in0.0 mm 0.00 in0.0 mm 0.00 in0.0 mm
03:40 PM 66.1°F18.9°C 47.9°F8.8°C 52% 9.2 mph NW14.8 kmh NW 19.7 mph31.7 kmh 30.16 in1021.3 mb 0.00 in0.0 mm 0.00 in0.0 mm 0.00 in0.0 mm
03:45 PM 66.1°F18.9°C 47.5°F8.6°C 51% 10.0 mph NW16.1 kmh NW 19.2 mph30.9 kmh 30.16 in1021.3 mb 0.00 in0.0 mm 0.00 in0.0 mm 0.00 in0.0 mm
03:50 PM 66.4°F19.1°C 47.6°F8.7°C 51% 12.3 mph NW19.8 kmh NW 22.6 mph36.4 kmh 30.16 in1021.3 mb 0.00 in0.0 mm 0.00 in0.0 mm 0.00 in0.0 mm
03:55 PM 66.6°F19.2°C 47.3°F8.5°C 50% 11.9 mph WNW19.2 kmh WNW 19.0 mph30.6 kmh 30.16 in1021.3 mb 0.00 in0.0 mm 0.00 in0.0 mm 0.00 in0.0 mm
04:00 PM 66.7°F19.3°C 47.1°F8.4°C 49% 10.7 mph WNW17.2 kmh WNW 19.2 mph30.9 kmh 30.16 in1021.3 mb 0.00 in0.0 mm 0.00 in0.0 mm 0.00 in0.0 mm
04:05 PM 66.9°F19.4°C 46.8°F8.2°C 48% 10.6 mph WNW17.1 kmh WNW 17.4 mph28.0 kmh 30.16 in1021.3 mb 0.00 in0.0 mm 0.00 in0.0 mm 0.00 in0.0 mm
04:10 PM 67.1°F19.5°C 46.8°F8.2°C 48% 10.3 mph W16.6 kmh W 10.3 mph16.6 kmh 30.16 in1021.3 mb 0.00 in0.0 mm 0.00 in0.0 mm 0.00 in0.0 mm
04:15 PM 67.2°F19.6°C 46.2°F7.9°C 47% 9.6 mph W15.4 kmh W 15.2 mph24.5 kmh 30.16 in1021.3 mb 0.00 in0.0 mm 0.00 in0.0 mm 0.00 in0.0 mm
04:20 PM 67.0°F19.4°C 45.6°F7.6°C 46% 7.6 mph W12.2 kmh W 19.7 mph31.7 kmh 30.16 in1021.3 mb 0.00 in0.0 mm 0.00 in0.0 mm 0.00 in0.0 mm
04:25 PM 66.8°F19.3°C 45.4°F7.4°C 46% 8.5 mph W13.7 kmh W 21.5 mph34.6 kmh 30.16 in1021.3 mb 0.00 in0.0 mm 0.00 in0.0 mm 0.00 in0.0 mm
04:30 PM 66.6°F19.2°C 45.4°F7.4°C 46% 11.2 mph WNW18.0 kmh WNW 20.1 mph32.3 kmh 30.16 in1021.3 mb 0.00 in0.0 mm 0.00 in0.0 mm 0.00 in0.0 mm
04:35 PM 66.2°F19.0°C 44.8°F7.1°C 46% 11.5 mph WNW18.5 kmh WNW 19.7 mph31.7 kmh 30.16 in1021.3 mb 0.00 in0.0 mm 0.00 in0.0 mm 0.00 in0.0 mm
04:40 PM 65.9°F18.8°C 44.5°F6.9°C 46% 12.3 mph NW19.8 kmh NW 19.2 mph30.9 kmh 30.16 in1021.3 mb 0.00 in0.0 mm 0.00 in0.0 mm 0.00 in0.0 mm
04:45 PM 65.6°F18.7°C 44.2°F6.8°C 46% 12.2 mph NW19.6 kmh NW 21.5 mph34.6 kmh 30.16 in1021.3 mb 0.00 in0.0 mm 0.00 in0.0 mm 0.00 in0.0 mm
04:50 PM 65.4°F18.6°C 43.8°F6.6°C 46% 11.9 mph NW19.2 kmh NW 22.4 mph36.0 kmh 30.16 in1021.3 mb 0.00 in0.0 mm 0.00 in0.0 mm 0.00 in0.0 mm
04:55 PM 65.3°F18.5°C 43.4°F6.3°C 45% 13.0 mph NW20.9 kmh NW 28.0 mph45.1 kmh 30.16 in1021.3 mb 0.00 in0.0 mm 0.00 in0.0 mm 0.00 in0.0 mm
05:00 PM 65.1°F18.4°C 43.3°F6.3°C 45% 16.3 mph NW26.2 kmh NW 25.7 mph41.4 kmh 30.16 in1021.3 mb 0.00 in0.0 mm 0.00 in0.0 mm 0.00 in0.0 mm
05:05 PM 65.1°F18.4°C 43.1°F6.2°C 45% 16.9 mph NW27.2 kmh NW 26.2 mph42.2 kmh 30.16 in1021.3 mb 0.00 in0.0 mm 0.00 in0.0 mm 0.00 in0.0 mm
05:10 PM 64.9°F18.3°C 42.4°F5.8°C 44% 18.6 mph NW29.9 kmh NW 24.8 mph39.9 kmh 30.17 in1021.7 mb 0.00 in0.0 mm 0.00 in0.0 mm 0.00 in0.0 mm
05:15 PM 64.7°F18.2°C 41.4°F5.2°C 43% 17.7 mph NW28.5 kmh NW 24.8 mph39.9 kmh 30.17 in1021.7 mb 0.00 in0.0 mm 0.00 in0.0 mm 0.00 in0.0 mm
05:20 PM 64.4°F18.0°C 41.5°F5.3°C 43% 15.2 mph NW24.5 kmh NW 23.5 mph37.8 kmh 30.17 in1021.7 mb 0.00 in0.0 mm 0.00 in0.0 mm 0.00 in0.0 mm
05:25 PM 63.9°F17.7°C 41.6°F5.3°C 44% 14.7 mph NW23.7 kmh NW 22.4 mph36.0 kmh 30.17 in1021.7 mb 0.00 in0.0 mm 0.00 in0.0 mm 0.00 in0.0 mm
05:30 PM 63.4°F17.4°C 41.2°F5.1°C 44% 13.4 mph NW21.6 kmh NW 23.0 mph37.0 kmh 30.17 in1021.7 mb 0.00 in0.0 mm 0.00 in0.0 mm 0.00 in0.0 mm
05:35 PM 63.1°F17.3°C 41.4°F5.2°C 45% 14.0 mph NW22.5 kmh NW 26.8 mph43.1 kmh 30.17 in1021.7 mb 0.00 in0.0 mm 0.00 in0.0 mm 0.00 in0.0 mm
05:40 PM 62.8°F17.1°C 41.2°F5.1°C 45% 15.7 mph NW25.3 kmh NW 24.6 mph39.6 kmh 30.18 in1022.0 mb 0.00 in0.0 mm 0.00 in0.0 mm 0.00 in0.0 mm
05:45 PM 62.5°F16.9°C 40.7°F4.8°C 45% 15.7 mph NW25.3 kmh NW 24.8 mph39.9 kmh 30.18 in1022.0 mb 0.00 in0.0 mm 0.00 in0.0 mm 0.00 in0.0 mm
05:50 PM 62.2°F16.8°C 39.5°F4.2°C 43% 15.7 mph NW25.3 kmh NW 27.3 mph43.9 kmh 30.18 in1022.0 mb 0.00 in0.0 mm 0.00 in0.0 mm 0.00 in0.0 mm
05:55 PM 61.9°F16.6°C 37.7°F3.2°C 40% 16.0 mph NW25.7 kmh NW 29.5 mph47.5 kmh 30.18 in1022.0 mb 0.00 in0.0 mm 0.00 in0.0 mm 0.00 in0.0 mm
06:00 PM 61.6°F16.4°C 36.7°F2.6°C 39% 17.0 mph NW27.4 kmh NW 31.3 mph50.4 kmh 30.18 in1022.0 mb 0.00 in0.0 mm 0.00 in0.0 mm 0.00 in0.0 mm
06:05 PM 61.4°F16.3°C 36.7°F2.6°C 40% 17.5 mph NW28.2 kmh NW 33.1 mph53.3 kmh 30.18 in1022.0 mb 0.00 in0.0 mm 0.00 in0.0 mm 0.00 in0.0 mm
06:10 PM 61.2°F16.2°C 36.7°F2.6°C 40% 19.0 mph NW30.6 kmh NW 33.1 mph53.3 kmh 30.18 in1022.0 mb 0.00 in0.0 mm 0.00 in0.0 mm 0.00 in0.0 mm
06:15 PM 61.1°F16.2°C 37.2°F2.9°C 41% 19.5 mph NW31.4 kmh NW 28.4 mph45.7 kmh 30.18 in1022.0 mb 0.00 in0.0 mm 0.00 in0.0 mm 0.00 in0.0 mm
06:20 PM 61.0°F16.1°C 37.1°F2.8°C 41% 20.8 mph NW33.5 kmh NW 27.3 mph43.9 kmh 30.18 in1022.0 mb 0.00 in0.0 mm 0.00 in0.0 mm 0.00 in0.0 mm
06:25 PM 60.7°F15.9°C 37.1°F2.8°C 41% 19.4 mph NW31.2 kmh NW 26.4 mph42.5 kmh 30.19 in1022.4 mb 0.00 in0.0 mm 0.00 in0.0 mm 0.00 in0.0 mm
06:30 PM 60.6°F15.9°C 37.4°F3.0°C 42% 15.2 mph WNW24.5 kmh WNW 26.2 mph42.2 kmh 30.19 in1022.4 mb 0.00 in0.0 mm 0.00 in0.0 mm 0.00 in0.0 mm
06:35 PM 60.6°F15.9°C 37.4°F3.0°C 42% 16.0 mph WNW25.7 kmh WNW 26.8 mph43.1 kmh 30.19 in1022.4 mb 0.00 in0.0 mm 0.00 in0.0 mm 0.00 in0.0 mm
06:40 PM 60.4°F15.8°C 37.2°F2.9°C 42% 18.1 mph WNW29.1 kmh WNW 26.2 mph42.2 kmh 30.20 in1022.7 mb 0.00 in0.0 mm 0.00 in0.0 mm 0.00 in0.0 mm
06:45 PM 60.3°F15.7°C 37.1°F2.8°C 42% 17.4 mph WNW28.0 kmh WNW 20.1 mph32.3 kmh 30.20 in1022.7 mb 0.00 in0.0 mm 0.00 in0.0 mm 0.00 in0.0 mm
06:50 PM 60.2°F15.7°C 37.0°F2.8°C 42% 15.2 mph WNW24.5 kmh WNW 24.8 mph39.9 kmh 30.20 in1022.7 mb 0.00 in0.0 mm 0.00 in0.0 mm 0.00 in0.0 mm
06:55 PM 60.0°F15.6°C 37.1°F2.8°C 42% 14.9 mph W24.0 kmh W 23.7 mph38.1 kmh 30.21 in1023.0 mb 0.00 in0.0 mm 0.00 in0.0 mm 0.00 in0.0 mm
07:00 PM 59.9°F15.5°C 37.3°F2.9°C 43% 14.1 mph W22.7 kmh W 21.9 mph35.2 kmh 30.21 in1023.0 mb 0.00 in0.0 mm 0.00 in0.0 mm 0.00 in0.0 mm
07:05 PM 59.7°F15.4°C 37.2°F2.9°C 43% 14.5 mph W23.3 kmh W 22.4 mph36.0 kmh 30.21 in1023.0 mb 0.00 in0.0 mm 0.00 in0.0 mm 0.00 in0.0 mm
07:10 PM 59.6°F15.3°C 37.5°F3.1°C 44% 15.7 mph WSW25.3 kmh WSW 19.2 mph30.9 kmh 30.21 in1023.0 mb 0.00 in0.0 mm 0.00 in0.0 mm 0.00 in0.0 mm
07:15 PM 59.4°F15.2°C 37.4°F3.0°C 44% 15.5 mph WSW24.9 kmh WSW 22.4 mph36.0 kmh 30.21 in1023.0 mb 0.00 in0.0 mm 0.00 in0.0 mm 0.00 in0.0 mm
07:20 PM 59.2°F15.1°C 37.3°F2.9°C 44% 15.2 mph WSW24.5 kmh WSW 22.4 mph36.0 kmh 30.21 in1023.0 mb 0.00 in0.0 mm 0.00 in0.0 mm 0.00 in0.0 mm
07:25 PM 59.2°F15.1°C 37.3°F2.9°C 44% 15.6 mph WSW25.1 kmh WSW 24.6 mph39.6 kmh 30.21 in1023.0 mb 0.00 in0.0 mm 0.00 in0.0 mm 0.00 in0.0 mm
07:30 PM 59.4°F15.2°C 37.4°F3.0°C 44% 16.8 mph WSW27.0 kmh WSW 24.2 mph38.9 kmh 30.21 in1023.0 mb 0.00 in0.0 mm 0.00 in0.0 mm 0.00 in0.0 mm
07:35 PM 59.4°F15.2°C 37.4°F3.0°C 44% 16.8 mph WSW27.0 kmh WSW 22.6 mph36.4 kmh 30.21 in1023.0 mb 0.00 in0.0 mm 0.00 in0.0 mm 0.00 in0.0 mm
07:40 PM 59.4°F15.2°C 37.7°F3.2°C 44% 17.0 mph WSW27.4 kmh WSW 25.7 mph41.4 kmh 30.21 in1023.0 mb 0.00 in0.0 mm 0.00 in0.0 mm 0.00 in0.0 mm
07:45 PM 59.4°F15.2°C 38.0°F3.3°C 45% 17.3 mph WSW27.8 kmh WSW 26.4 mph42.5 kmh 30.21 in1023.0 mb 0.00 in0.0 mm 0.00 in0.0 mm 0.00 in0.0 mm
07:50 PM 59.2°F15.1°C 37.9°F3.3°C 45% 18.1 mph WSW29.1 kmh WSW 28.4 mph45.7 kmh 30.21 in1023.0 mb 0.00 in0.0 mm 0.00 in0.0 mm 0.00 in0.0 mm
07:55 PM 59.1°F15.1°C 37.9°F3.3°C 45% 18.4 mph WSW29.6 kmh WSW 25.7 mph41.4 kmh 30.21 in1023.0 mb 0.00 in0.0 mm 0.00 in0.0 mm 0.00 in0.0 mm
08:00 PM 58.8°F14.9°C 38.1°F3.4°C 46% 19.2 mph WSW30.9 kmh WSW 26.4 mph42.5 kmh 30.21 in1023.0 mb 0.00 in0.0 mm 0.00 in0.0 mm 0.00 in0.0 mm
08:05 PM 58.6°F14.8°C 38.2°F3.4°C 46% 19.1 mph WSW30.7 kmh WSW 28.0 mph45.1 kmh 30.21 in1023.0 mb 0.00 in0.0 mm 0.00 in0.0 mm 0.00 in0.0 mm
08:10 PM 58.5°F14.7°C 38.3°F3.5°C 47% 18.6 mph WSW29.9 kmh WSW 27.3 mph43.9 kmh 30.21 in1023.0 mb 0.00 in0.0 mm 0.00 in0.0 mm 0.00 in0.0 mm
08:15 PM 58.5°F14.7°C 38.3°F3.5°C 47% 18.5 mph WSW29.8 kmh WSW 26.8 mph43.1 kmh 30.21 in1023.0 mb 0.00 in0.0 mm 0.00 in0.0 mm 0.00 in0.0 mm
08:20 PM 58.5°F14.7°C 38.3°F3.5°C 47% 18.1 mph WSW29.1 kmh WSW 25.7 mph41.4 kmh 30.21 in1023.0 mb 0.00 in0.0 mm 0.00 in0.0 mm 0.00 in0.0 mm
08:25 PM 58.3°F14.6°C 38.7°F3.7°C 48% 17.8 mph WSW28.6 kmh WSW 25.3 mph40.7 kmh 30.22 in1023.4 mb 0.00 in0.0 mm 0.00 in0.0 mm 0.00 in0.0 mm
08:30 PM 58.3°F14.6°C 38.7°F3.7°C 48% 17.0 mph WSW27.4 kmh WSW 24.6 mph39.6 kmh 30.22 in1023.4 mb 0.00 in0.0 mm 0.00 in0.0 mm 0.00 in0.0 mm
08:35 PM 58.3°F14.6°C 38.7°F3.7°C 48% 16.7 mph WSW26.9 kmh WSW 25.7 mph41.4 kmh 30.22 in1023.4 mb 0.00 in0.0 mm 0.00 in0.0 mm 0.00 in0.0 mm
08:40 PM 58.3°F14.6°C 38.8°F3.8°C 48% 15.9 mph WSW25.6 kmh WSW 27.5 mph44.3 kmh 30.22 in1023.4 mb 0.00 in0.0 mm 0.00 in0.0 mm 0.00 in0.0 mm
08:45 PM 58.3°F14.6°C 39.2°F4.0°C 49% 15.8 mph WSW25.4 kmh WSW 23.5 mph37.8 kmh 30.22 in1023.4 mb 0.00 in0.0 mm 0.00 in0.0 mm 0.00 in0.0 mm
08:50 PM 58.0°F14.4°C 39.0°F3.9°C 49% 15.7 mph W25.3 kmh W 18.6 mph29.9 kmh 30.22 in1023.4 mb 0.00 in0.0 mm 0.00 in0.0 mm 0.00 in0.0 mm
08:55 PM 57.9°F14.4°C 38.9°F3.8°C 49% 14.3 mph W23.0 kmh W 18.1 mph29.1 kmh 30.23 in1023.7 mb 0.00 in0.0 mm 0.00 in0.0 mm 0.00 in0.0 mm
09:00 PM 57.9°F14.4°C 39.0°F3.9°C 49% 10.3 mph W16.6 kmh W 10.3 mph16.6 kmh 30.23 in1023.7 mb 0.00 in0.0 mm 0.00 in0.0 mm 0.00 in0.0 mm
09:05 PM 57.7°F14.3°C 39.2°F4.0°C 50% 9.3 mph W15.0 kmh W 11.9 mph19.2 kmh 30.23 in1023.7 mb 0.00 in0.0 mm 0.00 in0.0 mm 0.00 in0.0 mm
09:10 PM 57.5°F14.2°C 39.0°F3.9°C 50% 6.5 mph WNW10.5 kmh WNW 10.7 mph17.2 kmh 30.23 in1023.7 mb 0.00 in0.0 mm 0.00 in0.0 mm 0.00 in0.0 mm
09:15 PM 57.1°F13.9°C 39.2°F4.0°C 51% 6.2 mph WNW10.0 kmh WNW 11.2 mph18.0 kmh 30.23 in1023.7 mb 0.00 in0.0 mm 0.00 in0.0 mm 0.00 in0.0 mm
09:20 PM 56.9°F13.8°C 39.2°F4.0°C 52% 5.4 mph W8.7 kmh W 7.4 mph11.9 kmh 30.23 in1023.7 mb 0.00 in0.0 mm 0.00 in0.0 mm 0.00 in0.0 mm
09:25 PM 56.6°F13.7°C 39.2°F4.0°C 52% 5.0 mph WNW8.0 kmh WNW 6.9 mph11.1 kmh 30.23 in1023.7 mb 0.00 in0.0 mm 0.00 in0.0 mm 0.00 in0.0 mm
09:30 PM 56.5°F13.6°C 39.1°F3.9°C 52% 4.0 mph NNE6.4 kmh NNE 6.3 mph10.1 kmh 30.23 in1023.7 mb 0.00 in0.0 mm 0.00 in0.0 mm 0.00 in0.0 mm
09:35 PM 56.5°F13.6°C 39.4°F4.1°C 53% 4.0 mph N6.4 kmh N 13.4 mph21.6 kmh 30.23 in1023.7 mb 0.00 in0.0 mm 0.00 in0.0 mm 0.00 in0.0 mm
09:40 PM 56.5°F13.6°C 39.6°F4.2°C 53% 4.0 mph NW6.4 kmh NW 18.1 mph29.1 kmh 30.23 in1023.7 mb 0.00 in0.0 mm 0.00 in0.0 mm 0.00 in0.0 mm
09:45 PM 56.7°F13.7°C 39.7°F4.3°C 53% 5.7 mph NW9.2 kmh NW 19.7 mph31.7 kmh 30.23 in1023.7 mb 0.00 in0.0 mm 0.00 in0.0 mm 0.00 in0.0 mm
09:50 PM 56.9°F13.8°C 39.4°F4.1°C 52% 10.7 mph W17.2 kmh W 17.9 mph28.8 kmh 30.23 in1023.7 mb 0.00 in0.0 mm 0.00 in0.0 mm 0.00 in0.0 mm
09:55 PM 57.0°F13.9°C 39.5°F4.2°C 52% 11.0 mph W17.7 kmh W 24.8 mph39.9 kmh 30.23 in1023.7 mb 0.00 in0.0 mm 0.00 in0.0 mm 0.00 in0.0 mm
10:00 PM 57.0°F13.9°C 39.6°F4.2°C 52% 11.9 mph W19.2 kmh W 19.7 mph31.7 kmh 30.23 in1023.7 mb 0.00 in0.0 mm 0.00 in0.0 mm 0.00 in0.0 mm
10:05 PM 56.9°F13.8°C 39.4°F4.1°C 52% 12.1 mph W19.5 kmh W 25.7 mph41.4 kmh 30.23 in1023.7 mb 0.00 in0.0 mm 0.00 in0.0 mm 0.00 in0.0 mm
10:10 PM 56.8°F13.8°C 39.4°F4.1°C 52% 13.0 mph W20.9 kmh W 23.7 mph38.1 kmh 30.23 in1023.7 mb 0.00 in0.0 mm 0.00 in0.0 mm 0.00 in0.0 mm
10:15 PM 56.8°F13.8°C 39.3°F4.1°C 52% 13.4 mph W21.6 kmh W 23.7 mph38.1 kmh 30.23 in1023.7 mb 0.00 in0.0 mm 0.00 in0.0 mm 0.00 in0.0 mm
10:20 PM 56.7°F13.7°C 39.3°F4.1°C 52% 14.8 mph W23.8 kmh W 28.4 mph45.7 kmh 30.23 in1023.7 mb 0.00 in0.0 mm 0.00 in0.0 mm 0.00 in0.0 mm
10:25 PM 56.7°F13.7°C 39.3°F4.1°C 52% 15.4 mph W24.8 kmh W 28.0 mph45.1 kmh 30.22 in1023.4 mb 0.00 in0.0 mm 0.00 in0.0 mm 0.00 in0.0 mm
10:30 PM 56.8°F13.8°C 39.5°F4.2°C 52% 17.4 mph W28.0 kmh W 25.7 mph41.4 kmh 30.22 in1023.4 mb 0.00 in0.0 mm 0.00 in0.0 mm 0.00 in0.0 mm
10:35 PM 56.8°F13.8°C 39.4°F4.1°C 52% 17.1 mph W27.5 kmh W 26.8 mph43.1 kmh 30.22 in1023.4 mb 0.00 in0.0 mm 0.00 in0.0 mm 0.00 in0.0 mm
10:40 PM 56.8°F13.8°C 39.4°F4.1°C 52% 15.9 mph W25.6 kmh W 25.7 mph41.4 kmh 30.21 in1023.0 mb 0.00 in0.0 mm 0.00 in0.0 mm 0.00 in0.0 mm
10:45 PM 56.8°F13.8°C 39.4°F4.1°C 52% 15.9 mph W25.6 kmh W 25.7 mph41.4 kmh 30.21 in1023.0 mb 0.00 in0.0 mm 0.00 in0.0 mm 0.00 in0.0 mm
10:50 PM 56.8°F13.8°C 39.7°F4.3°C 53% 15.9 mph W25.6 kmh W 27.3 mph43.9 kmh 30.21 in1023.0 mb 0.00 in0.0 mm 0.00 in0.0 mm 0.00 in0.0 mm
10:55 PM 56.8°F13.8°C 39.9°F4.4°C 53% 16.1 mph W25.9 kmh W 27.3 mph43.9 kmh 30.21 in1023.0 mb 0.00 in0.0 mm 0.00 in0.0 mm 0.00 in0.0 mm
11:00 PM 56.8°F13.8°C 39.8°F4.3°C 53% 16.8 mph W27.0 kmh W 26.8 mph43.1 kmh 30.21 in1023.0 mb 0.00 in0.0 mm 0.00 in0.0 mm 0.00 in0.0 mm
11:05 PM 56.8°F13.8°C 39.9°F4.4°C 53% 16.8 mph W27.0 kmh W 26.2 mph42.2 kmh 30.21 in1023.0 mb 0.00 in0.0 mm 0.00 in0.0 mm 0.00 in0.0 mm
11:10 PM 56.8°F13.8°C 39.9°F4.4°C 53% 16.8 mph W27.0 kmh W 26.8 mph43.1 kmh 30.21 in1023.0 mb 0.00 in0.0 mm 0.00 in0.0 mm 0.00 in0.0 mm
11:15 PM 56.8°F13.8°C 39.9°F4.4°C 53% 17.1 mph W27.5 kmh W 28.6 mph46.0 kmh 30.21 in1023.0 mb 0.00 in0.0 mm 0.00 in0.0 mm 0.00 in0.0 mm
11:20 PM 56.8°F13.8°C 39.9°F4.4°C 53% 17.9 mph W28.8 kmh W 26.4 mph42.5 kmh 30.21 in1023.0 mb 0.00 in0.0 mm 0.00 in0.0 mm 0.00 in0.0 mm
11:25 PM 56.8°F13.8°C 39.9°F4.4°C 53% 17.1 mph W27.5 kmh W 23.0 mph37.0 kmh 30.22 in1023.4 mb 0.00 in0.0 mm 0.00 in0.0 mm 0.00 in0.0 mm
11:30 PM 56.8°F13.8°C 39.9°F4.4°C 53% 14.8 mph WSW23.8 kmh WSW 23.0 mph37.0 kmh 30.22 in1023.4 mb 0.00 in0.0 mm 0.00 in0.0 mm 0.00 in0.0 mm
11:35 PM 56.8°F13.8°C 39.9°F4.4°C 53% 14.7 mph WSW23.7 kmh WSW 23.7 mph38.1 kmh 30.22 in1023.4 mb 0.00 in0.0 mm 0.00 in0.0 mm 0.00 in0.0 mm
11:40 PM 56.7°F13.7°C 39.8°F4.3°C 53% 14.5 mph W23.3 kmh W 21.9 mph35.2 kmh 30.22 in1023.4 mb 0.00 in0.0 mm 0.00 in0.0 mm 0.00 in0.0 mm
11:45 PM 56.7°F13.7°C 40.2°F4.6°C 54% 14.3 mph W23.0 kmh W 22.6 mph36.4 kmh 30.22 in1023.4 mb 0.00 in0.0 mm 0.00 in0.0 mm 0.00 in0.0 mm
11:50 PM 56.7°F13.7°C 40.2°F4.6°C 54% 13.6 mph W21.9 kmh W 23.5 mph37.8 kmh 30.22 in1023.4 mb 0.00 in0.0 mm 0.00 in0.0 mm 0.00 in0.0 mm
11:55 PM 56.7°F13.7°C 40.3°F4.6°C 54% 13.4 mph W21.6 kmh W 21.9 mph35.2 kmh 30.22 in1023.4 mb 0.00 in0.0 mm 0.00 in0.0 mm 0.00 in0.0 mm